Time,TemperatureF,DewpointF,PressureIn,WindDirection,WindDirectionDegrees,WindSpeedMPH,WindSpeedGustMPH,Humidity,HourlyPrecipIn,Conditions,Clouds,dailyrainin,SoftwareType,DateUTC
2013-06-02 00:01:00,53.9,47.5,29.86,North,356,3.0,5.0,79,0.00,,OVC018,0.00,VWS V14.01,2013-06-02 05:01:00,
2013-06-02 00:06:00,53.7,47.0,29.86,NNW,340,11.0,20.0,78,0.00,,OVC018,0.00,VWS V14.01,2013-06-02 05:06:00,
2013-06-02 00:11:00,53.4,46.7,29.86,NW,318,4.0,20.0,78,0.00,,OVC018,0.00,VWS V14.01,2013-06-02 05:11:00,
2013-06-02 00:16:00,53.2,46.5,29.87,NNE,25,4.0,20.0,78,0.00,,OVC018,0.00,VWS V14.01,2013-06-02 05:16:00,
2013-06-02 00:21:00,53.2,46.9,29.87,North,356,4.0,20.0,79,0.00,,OVC018,0.00,VWS V14.01,2013-06-02 05:21:00,
2013-06-02 00:26:00,53.1,47.1,29.87,NNW,340,6.0,20.0,80,0.00,,OVC018,0.00,VWS V14.01,2013-06-02 05:26:00,
2013-06-02 00:31:00,52.9,46.9,29.86,North,350,6.0,7.0,80,0.00,,OVC018,0.00,VWS V14.01,2013-06-02 05:31:00,
2013-06-02 00:36:00,52.8,47.1,29.86,NNE,12,4.0,12.0,81,0.00,,OVC018,0.00,VWS V14.01,2013-06-02 05:36:00,
2013-06-02 00:41:00,52.7,46.7,29.86,SE,145,1.0,13.0,80,0.00,,OVC018,0.00,VWS V14.01,2013-06-02 05:41:00,
2013-06-02 00:46:00,52.6,46.9,29.87,NNE,20,5.0,13.0,81,0.00,,OVC018,0.00,VWS V14.01,2013-06-02 05:46:00,
2013-06-02 00:51:00,52.5,46.8,29.87,North,349,5.0,13.0,81,0.00,,OVC018,0.00,VWS V14.01,2013-06-02 05:51:00,
2013-06-02 00:56:00,52.5,47.2,29.87,NNE,12,3.0,13.0,82,0.00,,OVC018,0.00,VWS V14.01,2013-06-02 05:56:00,
2013-06-02 01:01:00,52.5,46.8,29.87,NNW,347,7.0,8.0,81,0.00,,OVC030,0.00,VWS V14.01,2013-06-02 06:01:00,
2013-06-02 01:06:00,52.5,47.2,29.87,NNW,327,6.0,9.0,82,0.00,,OVC030,0.00,VWS V14.01,2013-06-02 06:06:00,
2013-06-02 01:11:00,52.3,46.3,29.87,NE,34,6.0,11.0,80,0.00,,OVC030,0.00,VWS V14.01,2013-06-02 06:11:00,
2013-06-02 01:16:00,52.2,45.9,29.88,NNW,341,3.0,15.0,79,0.00,,OVC030,0.00,VWS V14.01,2013-06-02 06:16:00,
2013-06-02 01:21:00,52.1,45.5,29.88,North,352,8.0,15.0,78,0.00,,OVC030,0.00,VWS V14.01,2013-06-02 06:21:00,
2013-06-02 01:26:00,52.1,45.5,29.88,North,359,2.0,17.0,78,0.00,,OVC030,0.00,VWS V14.01,2013-06-02 06:26:00,
2013-06-02 01:31:00,52.0,45.7,29.88,NE,49,3.0,4.0,79,0.00,,OVC030,0.00,VWS V14.01,2013-06-02 06:31:00,
2013-06-02 01:36:00,52.0,45.7,29.88,North,9,7.0,10.0,79,0.00,,OVC030,0.00,VWS V14.01,2013-06-02 06:36:00,
2013-06-02 01:41:00,51.9,45.6,29.88,North,6,15.0,18.0,79,0.00,,OVC030,0.00,VWS V14.01,2013-06-02 06:41:00,
2013-06-02 01:46:00,51.8,45.8,29.89,North,350,4.0,18.0,80,0.00,,OVC030,0.00,VWS V14.01,2013-06-02 06:46:00,
2013-06-02 01:51:00,51.8,45.5,29.89,North,5,4.0,18.0,79,0.00,,OVC030,0.00,VWS V14.01,2013-06-02 06:51:00,
2013-06-02 01:56:00,51.7,45.7,29.89,North,11,2.0,18.0,80,0.00,,OVC030,0.00,VWS V14.01,2013-06-02 06:56:00,
2013-06-02 02:01:00,51.5,45.5,29.89,NE,50,1.0,2.0,80,0.00,,OVC040,0.00,VWS V14.01,2013-06-02 07:01:00,
2013-06-02 02:06:00,51.3,45.7,29.89,ENE,60,2.0,11.0,81,0.00,,OVC040,0.00,VWS V14.01,2013-06-02 07:06:00,
2013-06-02 02:11:00,51.1,45.5,29.89,North,355,7.0,11.0,81,0.00,,OVC040,0.00,VWS V14.01,2013-06-02 07:11:00,
2013-06-02 02:16:00,50.9,45.3,29.89,NE,36,1.0,11.0,81,0.00,,OVC040,0.00,VWS V14.01,2013-06-02 07:16:00,
2013-06-02 02:21:00,50.8,45.2,29.90,North,356,7.0,11.0,81,0.00,,OVC040,0.00,VWS V14.01,2013-06-02 07:21:00,
2013-06-02 02:26:00,50.7,45.4,29.90,WNW,301,4.0,11.0,82,0.00,,OVC040,0.00,VWS V14.01,2013-06-02 07:26:00,
2013-06-02 02:31:00,50.7,45.4,29.90,North,6,2.0,8.0,82,0.00,,OVC040,0.00,VWS V14.01,2013-06-02 07:31:00,
2013-06-02 02:36:00,50.8,45.5,29.90,NE,46,1.0,10.0,82,0.00,,OVC040,0.00,VWS V14.01,2013-06-02 07:36:00,
2013-06-02 02:41:00,50.8,45.5,29.90,NE,46,1.0,11.0,82,0.00,,OVC040,0.00,VWS V14.01,2013-06-02 07:41:00,
2013-06-02 02:46:00,50.9,45.6,29.90,ESE,108,3.0,13.0,82,0.00,,OVC040,0.00,VWS V14.01,2013-06-02 07:46:00,
2013-06-02 02:51:00,51.0,45.7,29.90,NE,50,2.0,13.0,82,0.00,,OVC040,0.00,VWS V14.01,2013-06-02 07:51:00,
2013-06-02 02:56:00,51.0,45.7,29.90,NNE,13,4.0,13.0,82,0.00,,BKN032,0.00,VWS V14.01,2013-06-02 07:56:00,
2013-06-02 03:01:00,51.0,46.0,29.90,NNE,19,4.0,6.0,83,0.00,,BKN032,0.00,VWS V14.01,2013-06-02 08:01:00,
2013-06-02 03:06:00,51.0,46.0,29.90,NNW,342,3.0,10.0,83,0.00,,BKN032,0.00,VWS V14.01,2013-06-02 08:06:00,
2013-06-02 03:11:00,51.0,46.0,29.90,NNW,344,10.0,10.0,83,0.00,,BKN032,0.00,VWS V14.01,2013-06-02 08:11:00,
2013-06-02 03:16:00,51.0,46.0,29.90,NNW,331,5.0,10.0,83,0.00,,BKN032,0.00,VWS V14.01,2013-06-02 08:16:00,
2013-06-02 03:21:00,51.0,46.0,29.90,NNW,340,4.0,10.0,83,0.00,,BKN032,0.00,VWS V14.01,2013-06-02 08:21:00,
2013-06-02 03:26:00,51.0,46.0,29.90,NNE,23,1.0,10.0,83,0.00,,OVC032,0.00,VWS V14.01,2013-06-02 08:26:00,
2013-06-02 03:31:00,51.0,46.0,29.90,NE,56,0.0,1.0,83,0.00,,OVC032,0.00,VWS V14.01,2013-06-02 08:31:00,
2013-06-02 03:36:00,51.0,46.0,29.91,NNW,337,7.0,7.0,83,0.00,,OVC032,0.00,VWS V14.01,2013-06-02 08:36:00,
2013-06-02 03:41:00,51.0,46.0,29.90,NNW,335,3.0,9.0,83,0.00,,OVC032,0.00,VWS V14.01,2013-06-02 08:41:00,
2013-06-02 03:46:00,51.0,46.3,29.90,NNW,341,4.0,9.0,84,0.00,,OVC032,0.00,VWS V14.01,2013-06-02 08:46:00,
2013-06-02 03:51:00,50.9,46.2,29.90,NNW,335,7.0,13.0,84,0.00,,OVC032,0.00,VWS V14.01,2013-06-02 08:51:00,
2013-06-02 03:56:00,50.5,46.8,29.90,WNW,284,1.0,13.0,87,0.00,,OVC032,0.00,VWS V14.01,2013-06-02 08:56:00,
2013-06-02 04:01:00,50.3,47.2,29.90,NNE,26,6.0,6.0,89,0.00,,OVC023,0.00,VWS V14.01,2013-06-02 09:01:00,
2013-06-02 04:06:00,50.2,46.8,29.90,NNE,19,0.0,8.0,88,0.00,,OVC023,0.00,VWS V14.01,2013-06-02 09:06:00,
2013-06-02 04:11:00,50.3,46.6,29.90,NNE,27,3.0,10.0,87,0.00,,OVC023,0.00,VWS V14.01,2013-06-02 09:11:00,
2013-06-02 04:16:00,50.4,46.4,29.91,NNW,330,5.0,11.0,86,0.00,,OVC023,0.00,VWS V14.01,2013-06-02 09:16:00,
2013-06-02 04:21:00,50.4,46.1,29.91,North,9,2.0,12.0,85,0.00,,OVC023,0.00,VWS V14.01,2013-06-02 09:21:00,
2013-06-02 04:26:00,50.3,46.0,29.91,NNE,30,4.0,12.0,85,0.00,,OVC023,0.00,VWS V14.01,2013-06-02 09:26:00,
2013-06-02 04:31:00,50.2,45.6,29.91,North,350,2.0,2.0,84,0.00,,OVC023,0.00,VWS V14.01,2013-06-02 09:31:00,
2013-06-02 04:36:00,50.1,45.8,29.91,NNE,15,0.0,6.0,85,0.00,,OVC023,0.00,VWS V14.01,2013-06-02 09:36:00,
2013-06-02 04:41:00,50.1,45.5,29.92,NNE,23,5.0,10.0,84,0.00,,OVC023,0.00,VWS V14.01,2013-06-02 09:41:00,
2013-06-02 04:46:00,50.1,45.2,29.92,NNW,346,5.0,10.0,83,0.00,,OVC023,0.00,VWS V14.01,2013-06-02 09:46:00,
2013-06-02 04:51:00,50.1,44.8,29.92,NNW,335,4.0,13.0,82,0.00,,OVC023,0.00,VWS V14.01,2013-06-02 09:51:00,
2013-06-02 04:56:00,50.1,44.8,29.93,North,358,2.0,13.0,82,0.00,,OVC023,0.00,VWS V14.01,2013-06-02 09:56:00,
2013-06-02 05:01:00,50.1,44.8,29.93,NE,53,2.0,6.0,82,0.00,,OVC026,0.00,VWS V14.01,2013-06-02 10:01:00,
2013-06-02 05:06:00,50.2,44.9,29.93,NW,316,4.0,8.0,82,0.00,,OVC026,0.00,VWS V14.01,2013-06-02 10:06:00,
2013-06-02 05:11:00,50.3,44.7,29.94,NNE,13,5.0,8.0,81,0.00,,OVC026,0.00,VWS V14.01,2013-06-02 10:11:00,
2013-06-02 05:16:00,50.3,44.0,29.94,NNW,339,2.0,12.0,79,0.00,,OVC026,0.00,VWS V14.01,2013-06-02 10:16:00,
2013-06-02 05:21:00,50.2,42.6,29.94,NE,42,6.0,14.0,75,0.00,,OVC026,0.00,VWS V14.01,2013-06-02 10:21:00,
2013-06-02 05:26:00,50.1,42.5,29.94,North,351,4.0,14.0,75,0.00,,OVC026,0.00,VWS V14.01,2013-06-02 10:26:00,
2013-06-02 05:31:00,49.7,41.4,29.94,NNE,26,6.0,6.0,73,0.00,,OVC026,0.00,VWS V14.01,2013-06-02 10:31:00,
2013-06-02 05:36:00,49.5,41.6,29.94,ENE,66,3.0,12.0,74,0.00,,OVC026,0.00,VWS V14.01,2013-06-02 10:36:00,
2013-06-02 05:41:00,49.2,41.3,29.95,NE,39,1.0,12.0,74,0.00,,OVC026,0.00,VWS V14.01,2013-06-02 10:41:00,
2013-06-02 05:46:00,49.2,41.6,29.95,NNE,22,2.0,15.0,75,0.00,,OVC026,0.00,VWS V14.01,2013-06-02 10:46:00,
2013-06-02 05:51:00,49.1,41.5,29.95,NNW,331,6.0,15.0,75,0.00,,OVC026,0.00,VWS V14.01,2013-06-02 10:51:00,
2013-06-02 05:56:00,49.0,41.8,29.96,NNE,16,6.0,15.0,76,0.00,,OVC026,0.00,VWS V14.01,2013-06-02 10:56:00,
2013-06-02 06:01:00,48.9,41.3,29.96,NNE,12,6.0,15.0,75,0.00,,BKN034,0.00,VWS V14.01,2013-06-02 11:01:00,
2013-06-02 06:06:00,48.7,41.5,29.96,North,351,3.0,12.0,76,0.00,,BKN034,0.00,VWS V14.01,2013-06-02 11:06:00,
2013-06-02 06:11:00,48.7,41.1,29.96,North,359,5.0,19.0,75,0.00,,SCT028,0.00,VWS V14.01,2013-06-02 11:11:00,
2013-06-02 06:16:00,48.6,41.4,29.97,NE,39,1.0,19.0,76,0.00,,SCT028,0.00,VWS V14.01,2013-06-02 11:16:00,
2013-06-02 06:21:00,48.5,41.0,29.97,North,351,5.0,19.0,75,0.00,,SCT028,0.00,VWS V14.01,2013-06-02 11:21:00,
2013-06-02 06:25:00,48.5,41.3,29.97,North,9,4.0,19.0,76,0.00,,SCT028,0.00,VWS V14.01,2013-06-02 11:25:00,
2013-06-02 06:30:00,48.4,41.2,29.98,NE,39,3.0,4.0,76,0.00,,SCT028,0.00,VWS V14.01,2013-06-02 11:30:00,
2013-06-02 06:35:00,48.4,41.5,29.98,ENE,63,3.0,11.0,77,0.00,,SCT028,0.00,VWS V14.01,2013-06-02 11:35:00,
2013-06-02 06:40:00,48.4,41.2,29.98,North,1,2.0,11.0,76,0.00,,SCT028,0.00,VWS V14.01,2013-06-02 11:40:00,
2013-06-02 06:45:00,48.5,41.3,29.99,NW,321,2.0,11.0,76,0.00,,SCT028,0.00,VWS V14.01,2013-06-02 11:45:00,
2013-06-02 06:50:00,48.5,41.3,29.99,North,350,4.0,12.0,76,0.00,,BKN029,0.00,VWS V14.01,2013-06-02 11:50:00,
2013-06-02 06:55:00,48.6,41.7,29.99,ENE,60,1.0,12.0,77,0.00,,BKN029,0.00,VWS V14.01,2013-06-02 11:55:00,
2013-06-02 07:00:00,48.8,41.9,29.99,NNE,21,2.0,12.0,77,0.00,,BKN029,0.00,VWS V14.01,2013-06-02 12:00:00,
2013-06-02 07:05:00,48.9,42.0,29.99,ENE,72,2.0,5.0,77,0.00,,BKN029,0.00,VWS V14.01,2013-06-02 12:05:00,
2013-06-02 07:10:00,48.9,42.0,29.99,North,11,0.0,9.0,77,0.00,,BKN029,0.00,VWS V14.01,2013-06-02 12:10:00,
2013-06-02 07:15:00,49.1,42.5,29.99,NNE,20,2.0,9.0,78,0.00,,BKN029,0.00,VWS V14.01,2013-06-02 12:15:00,
2013-06-02 07:20:00,49.2,42.3,29.99,NE,36,0.0,9.0,77,0.00,,BKN029,0.00,VWS V14.01,2013-06-02 12:20:00,
2013-06-02 07:25:00,49.5,42.6,30.00,NE,43,0.0,9.0,77,0.00,,BKN029,0.00,VWS V14.01,2013-06-02 12:25:00,
2013-06-02 07:30:00,49.5,42.3,30.00,NE,46,1.0,9.0,76,0.00,,BKN029,0.00,VWS V14.01,2013-06-02 12:30:00,
2013-06-02 07:35:00,49.6,42.4,30.00,NNE,20,1.0,8.0,76,0.00,,BKN029,0.00,VWS V14.01,2013-06-02 12:35:00,
2013-06-02 07:40:00,49.7,42.8,30.00,NE,49,0.0,8.0,77,0.00,,BKN029,0.00,VWS V14.01,2013-06-02 12:40:00,
2013-06-02 07:45:00,49.9,43.0,30.00,NNE,13,0.0,9.0,77,0.00,,BKN029,0.00,VWS V14.01,2013-06-02 12:45:00,
2013-06-02 07:50:00,50.0,42.7,30.01,NE,37,0.0,9.0,76,0.00,,OVC031,0.00,VWS V14.01,2013-06-02 12:50:00,
2013-06-02 07:55:00,50.1,43.2,30.01,NNW,337,2.0,9.0,77,0.00,,OVC031,0.00,VWS V14.01,2013-06-02 12:55:00,
2013-06-02 08:00:00,50.1,43.2,30.01,NE,36,1.0,9.0,77,0.00,,OVC031,0.00,VWS V14.01,2013-06-02 13:00:00,
2013-06-02 08:05:00,50.4,43.5,30.01,North,11,1.0,6.0,77,0.00,,OVC031,0.00,VWS V14.01,2013-06-02 13:05:00,
2013-06-02 08:10:00,50.5,43.2,30.01,North,359,2.0,6.0,76,0.00,,OVC031,0.00,VWS V14.01,2013-06-02 13:10:00,
2013-06-02 08:15:00,50.5,42.9,30.01,NE,42,0.0,8.0,75,0.00,,OVC031,0.00,VWS V14.01,2013-06-02 13:15:00,
2013-06-02 08:20:00,50.5,43.2,30.01,NNE,32,0.0,8.0,76,0.00,,OVC031,0.00,VWS V14.01,2013-06-02 13:20:00,
2013-06-02 08:25:00,50.9,43.6,30.01,NNE,30,1.0,8.0,76,0.00,,OVC031,0.00,VWS V14.01,2013-06-02 13:25:00,
2013-06-02 08:30:00,50.9,43.6,30.01,ENE,60,0.0,8.0,76,0.00,,OVC031,0.00,VWS V14.01,2013-06-02 13:30:00,
2013-06-02 08:35:00,51.2,43.6,30.01,North,349,5.0,9.0,75,0.00,,OVC031,0.00,VWS V14.01,2013-06-02 13:35:00,
2013-06-02 08:40:00,51.2,43.9,30.01,NNW,341,1.0,9.0,76,0.00,,OVC031,0.00,VWS V14.01,2013-06-02 13:40:00,
2013-06-02 08:45:00,51.2,44.2,30.02,NNW,342,2.0,9.0,77,0.00,,OVC031,0.00,VWS V14.01,2013-06-02 13:45:00,
2013-06-02 08:50:00,51.4,43.8,30.02,NNE,16,2.0,9.0,75,0.00,,OVC031,0.00,VWS V14.01,2013-06-02 13:50:00,
2013-06-02 08:55:00,51.4,43.8,30.02,NNW,334,1.0,9.0,75,0.00,,OVC031,0.00,VWS V14.01,2013-06-02 13:55:00,
2013-06-02 09:00:00,51.5,44.2,30.02,North,6,1.0,9.0,76,0.00,,OVC031,0.00,VWS V14.01,2013-06-02 14:00:00,
2013-06-02 09:05:00,51.7,44.4,30.02,NE,46,2.0,6.0,76,0.00,,OVC031,0.00,VWS V14.01,2013-06-02 14:05:00,
2013-06-02 09:10:00,51.8,44.1,30.02,NNE,13,3.0,8.0,75,0.00,,OVC031,0.00,VWS V14.01,2013-06-02 14:10:00,
2013-06-02 09:15:00,51.9,44.2,30.02,NNE,19,5.0,8.0,75,0.00,,OVC031,0.00,VWS V14.01,2013-06-02 14:15:00,
2013-06-02 09:20:00,52.0,44.3,30.02,NNE,23,3.0,8.0,75,0.00,,OVC031,0.00,VWS V14.01,2013-06-02 14:20:00,
2013-06-02 09:25:00,51.9,44.6,30.02,North,354,4.0,8.0,76,0.00,,OVC031,0.00,VWS V14.01,2013-06-02 14:25:00,
2013-06-02 09:30:00,52.1,44.8,30.02,North,5,3.0,8.0,76,0.00,,OVC031,0.00,VWS V14.01,2013-06-02 14:30:00,
2013-06-02 09:35:00,52.5,45.5,30.02,NNE,16,1.0,9.0,77,0.00,,OVC031,0.00,VWS V14.01,2013-06-02 14:35:00,
2013-06-02 09:40:00,52.6,44.6,30.02,NNE,30,5.0,9.0,74,0.00,,OVC031,0.00,VWS V14.01,2013-06-02 14:40:00,
2013-06-02 09:45:00,52.4,44.7,30.02,NNE,21,2.0,9.0,75,0.00,,OVC031,0.00,VWS V14.01,2013-06-02 14:45:00,
2013-06-02 09:50:00,52.4,45.1,30.03,NE,52,0.0,9.0,76,0.00,,OVC031,0.00,VWS V14.01,2013-06-02 14:50:00,
2013-06-02 09:55:00,52.9,46.2,30.03,NNE,25,1.0,10.0,78,0.00,,OVC031,0.00,VWS V14.01,2013-06-02 14:55:00,
2013-06-02 10:00:00,53.4,45.3,30.03,NE,41,1.0,10.0,74,0.00,,OVC031,0.00,VWS V14.01,2013-06-02 15:00:00,
2013-06-02 10:05:00,53.2,45.5,30.03,NE,51,1.0,8.0,75,0.00,,OVC030,0.00,VWS V14.01,2013-06-02 15:05:00,
2013-06-02 10:10:00,53.1,45.4,30.03,North,359,1.0,8.0,75,0.00,,OVC030,0.00,VWS V14.01,2013-06-02 15:10:00,
2013-06-02 10:15:00,53.2,46.2,30.03,NNW,339,0.0,8.0,77,0.00,,OVC030,0.00,VWS V14.01,2013-06-02 15:15:00,
2013-06-02 10:20:00,53.4,45.7,30.03,NE,41,1.0,8.0,75,0.00,,OVC030,0.00,VWS V14.01,2013-06-02 15:20:00,
2013-06-02 10:25:00,54.1,46.4,30.03,NNE,21,2.0,8.0,75,0.00,,OVC030,0.00,VWS V14.01,2013-06-02 15:25:00,
2013-06-02 10:30:00,54.3,45.5,30.03,North,11,3.0,9.0,72,0.00,,OVC030,0.00,VWS V14.01,2013-06-02 15:30:00,
2013-06-02 10:35:00,54.6,45.0,30.02,NNE,29,1.0,9.0,70,0.00,,OVC030,0.00,VWS V14.01,2013-06-02 15:35:00,
2013-06-02 10:40:00,54.6,45.0,30.02,NNE,13,7.0,9.0,70,0.00,,OVC030,0.00,VWS V14.01,2013-06-02 15:40:00,
2013-06-02 10:45:00,54.7,45.5,30.03,NNE,26,1.0,9.0,71,0.00,,OVC030,0.00,VWS V14.01,2013-06-02 15:45:00,
2013-06-02 10:50:00,54.5,45.7,30.03,NNE,32,3.0,9.0,72,0.00,,OVC030,0.00,VWS V14.01,2013-06-02 15:50:00,
2013-06-02 10:55:00,54.7,45.9,30.03,North,6,2.0,14.0,72,0.00,,OVC030,0.00,VWS V14.01,2013-06-02 15:55:00,
2013-06-02 11:00:00,55.2,46.7,30.03,North,6,2.0,14.0,73,0.00,,OVC030,0.00,VWS V14.01,2013-06-02 16:00:00,
2013-06-02 11:05:00,56.2,46.2,30.03,NNE,33,0.0,10.0,69,0.00,,OVC035,0.00,VWS V14.01,2013-06-02 16:05:00,
2013-06-02 11:10:00,56.9,47.2,30.03,ENE,60,1.0,10.0,70,0.00,,OVC035,0.00,VWS V14.01,2013-06-02 16:10:00,
2013-06-02 11:15:00,57.3,45.7,30.03,North,5,4.0,11.0,65,0.00,,OVC035,0.00,VWS V14.01,2013-06-02 16:15:00,
2013-06-02 11:20:00,57.2,44.3,30.03,North,4,3.0,11.0,62,0.00,,OVC035,0.00,VWS V14.01,2013-06-02 16:20:00,
2013-06-02 11:25:00,56.7,43.8,30.03,NNW,343,6.0,11.0,62,0.00,,OVC035,0.00,VWS V14.01,2013-06-02 16:25:00,
2013-06-02 11:30:00,56.7,44.7,30.03,NE,41,2.0,11.0,64,0.00,,OVC035,0.00,VWS V14.01,2013-06-02 16:30:00,
2013-06-02 11:35:00,56.9,44.9,30.02,North,351,6.0,6.0,64,0.00,,OVC035,0.00,VWS V14.01,2013-06-02 16:35:00,
2013-06-02 11:40:00,56.3,44.7,30.03,North,4,4.0,10.0,65,0.00,,OVC035,0.00,VWS V14.01,2013-06-02 16:40:00,
2013-06-02 11:45:00,55.9,44.3,30.03,NNE,30,2.0,10.0,65,0.00,,OVC035,0.00,VWS V14.01,2013-06-02 16:45:00,
2013-06-02 11:50:00,56.7,45.5,30.03,North,11,5.0,10.0,66,0.00,,OVC035,0.00,VWS V14.01,2013-06-02 16:50:00,
2013-06-02 11:55:00,57.0,46.2,30.03,North,8,2.0,10.0,67,0.00,,OVC035,0.00,VWS V14.01,2013-06-02 16:55:00,
2013-06-02 12:00:00,57.1,46.3,30.03,North,7,2.0,10.0,67,0.00,,OVC035,0.00,VWS V14.01,2013-06-02 17:00:00,
2013-06-02 12:05:00,57.4,45.3,30.03,North,5,2.0,8.0,64,0.00,,BKN035,0.00,VWS V14.01,2013-06-02 17:05:00,
2013-06-02 12:10:00,57.6,47.1,30.03,North,354,2.0,8.0,68,0.00,,BKN035,0.00,VWS V14.01,2013-06-02 17:10:00,
2013-06-02 12:15:00,57.5,45.8,30.03,NNE,18,1.0,8.0,65,0.00,,BKN035,0.00,VWS V14.01,2013-06-02 17:15:00,
2013-06-02 12:20:00,57.3,44.4,30.03,WNW,290,0.0,9.0,62,0.00,,OVC033,0.00,VWS V14.01,2013-06-02 17:20:00,
2013-06-02 12:25:00,58.2,46.5,30.03,NNE,12,8.0,12.0,65,0.00,,OVC033,0.00,VWS V14.01,2013-06-02 17:25:00,
2013-06-02 12:30:00,58.4,46.7,30.03,North,358,6.0,12.0,65,0.00,,OVC033,0.00,VWS V14.01,2013-06-02 17:30:00,
2013-06-02 12:35:00,58.7,45.7,30.03,NW,314,1.0,7.0,62,0.00,,OVC033,0.00,VWS V14.01,2013-06-02 17:35:00,
2013-06-02 12:40:00,58.7,46.2,30.03,WNW,285,0.0,8.0,63,0.00,,OVC033,0.00,VWS V14.01,2013-06-02 17:40:00,
2013-06-02 12:45:00,58.9,47.6,30.02,NE,46,1.0,8.0,66,0.00,,OVC033,0.00,VWS V14.01,2013-06-02 17:45:00,
2013-06-02 12:50:00,59.5,45.6,30.02,NNW,346,4.0,8.0,60,0.00,,OVC033,0.00,VWS V14.01,2013-06-02 17:50:00,
2013-06-02 12:55:00,59.7,45.4,30.02,ENE,63,2.0,8.0,59,0.00,,OVC033,0.00,VWS V14.01,2013-06-02 17:55:00,
2013-06-02 13:00:00,59.1,46.5,30.02,North,351,2.0,8.0,63,0.00,,OVC033,0.00,VWS V14.01,2013-06-02 18:00:00,
2013-06-02 13:05:00,58.7,45.3,30.02,North,352,2.0,5.0,61,0.00,,SCT032,0.00,VWS V14.01,2013-06-02 18:05:00,
2013-06-02 13:10:00,58.9,45.5,30.02,NNE,13,4.0,9.0,61,0.00,,SCT032,0.00,VWS V14.01,2013-06-02 18:10:00,
2013-06-02 13:15:00,59.0,45.2,30.02,North,1,1.0,9.0,60,0.00,,SCT032,0.00,VWS V14.01,2013-06-02 18:15:00,
2013-06-02 13:20:00,59.2,45.3,30.02,NNW,335,3.0,9.0,60,0.00,,SCT032,0.00,VWS V14.01,2013-06-02 18:20:00,
2013-06-02 13:25:00,59.7,45.4,30.02,NNE,23,4.0,9.0,59,0.00,,SCT032,0.00,VWS V14.01,2013-06-02 18:25:00,
2013-06-02 13:30:00,59.7,47.1,30.02,NE,36,2.0,9.0,63,0.00,,SCT032,0.00,VWS V14.01,2013-06-02 18:30:00,
2013-06-02 13:35:00,60.5,48.3,30.02,NNW,337,1.0,10.0,64,0.00,,SCT032,0.00,VWS V14.01,2013-06-02 18:35:00,
2013-06-02 13:40:00,60.1,44.4,30.02,NW,326,4.0,10.0,56,0.00,,SCT032,0.00,VWS V14.01,2013-06-02 18:40:00,
2013-06-02 13:45:00,60.0,45.2,30.01,North,8,1.0,10.0,58,0.00,,SCT032,0.00,VWS V14.01,2013-06-02 18:45:00,
2013-06-02 13:50:00,60.4,47.8,30.01,West,276,2.0,10.0,63,0.00,,SCT032,0.00,VWS V14.01,2013-06-02 18:50:00,
2013-06-02 13:55:00,61.1,46.2,30.01,NNE,20,1.0,10.0,58,0.00,,SCT032,0.00,VWS V14.01,2013-06-02 18:55:00,
2013-06-02 14:00:00,61.4,46.0,30.01,NNE,16,4.0,10.0,57,0.00,,SCT032,0.00,VWS V14.01,2013-06-02 19:00:00,
2013-06-02 14:05:00,61.5,45.7,30.01,NE,46,0.0,7.0,56,0.00,,CLR,0.00,VWS V14.01,2013-06-02 19:05:00,
2013-06-02 14:10:00,61.6,46.2,30.01,NNW,335,2.0,7.0,57,0.00,,CLR,0.00,VWS V14.01,2013-06-02 19:10:00,
2013-06-02 14:15:00,61.7,44.9,30.01,NNE,18,1.0,7.0,54,0.00,,CLR,0.00,VWS V14.01,2013-06-02 19:15:00,
2013-06-02 14:20:00,61.9,46.0,30.01,North,354,3.0,8.0,56,0.00,,CLR,0.00,VWS V14.01,2013-06-02 19:20:00,
2013-06-02 14:25:00,61.5,44.7,30.01,WNW,283,2.0,8.0,54,0.00,,CLR,0.00,VWS V14.01,2013-06-02 19:25:00,
2013-06-02 14:30:00,61.9,47.4,30.01,NNE,19,4.0,8.0,59,0.00,,CLR,0.00,VWS V14.01,2013-06-02 19:30:00,
2013-06-02 14:35:00,61.7,44.4,30.01,North,353,3.0,5.0,53,0.00,,CLR,0.00,VWS V14.01,2013-06-02 19:35:00,
2013-06-02 14:40:00,61.8,45.5,30.02,North,8,5.0,6.0,55,0.00,,CLR,0.00,VWS V14.01,2013-06-02 19:40:00,
2013-06-02 14:45:00,61.7,44.9,30.02,NNW,341,1.0,6.0,54,0.00,,CLR,0.00,VWS V14.01,2013-06-02 19:45:00,
2013-06-02 14:50:00,62.5,48.4,30.02,SE,134,1.0,6.0,60,0.00,,CLR,0.00,VWS V14.01,2013-06-02 19:50:00,
2013-06-02 14:55:00,63.1,46.7,30.02,NNW,331,1.0,6.0,55,0.00,,CLR,0.00,VWS V14.01,2013-06-02 19:55:00,
2013-06-02 15:00:00,63.6,47.2,30.01,NNE,25,7.0,8.0,55,0.00,,CLR,0.00,VWS V14.01,2013-06-02 20:00:00,
2013-06-02 15:05:00,63.0,43.6,30.01,North,360,7.0,8.0,49,0.00,,CLR,0.00,VWS V14.01,2013-06-02 20:05:00,
2013-06-02 15:10:00,62.7,45.3,30.01,North,6,0.0,8.0,53,0.00,,CLR,0.00,VWS V14.01,2013-06-02 20:10:00,
2013-06-02 15:15:00,63.1,46.2,30.01,NE,39,2.0,8.0,54,0.00,,CLR,0.00,VWS V14.01,2013-06-02 20:15:00,
2013-06-02 15:20:00,63.5,48.5,30.01,NW,305,2.0,8.0,58,0.00,,CLR,0.00,VWS V14.01,2013-06-02 20:20:00,
2013-06-02 15:25:00,63.4,45.5,30.01,WNW,302,2.0,8.0,52,0.00,,CLR,0.00,VWS V14.01,2013-06-02 20:25:00,
2013-06-02 15:30:00,63.6,47.2,30.01,NNE,25,4.0,8.0,55,0.00,,CLR,0.00,VWS V14.01,2013-06-02 20:30:00,
2013-06-02 15:35:00,63.6,44.1,30.01,North,1,2.0,7.0,49,0.00,,CLR,0.00,VWS V14.01,2013-06-02 20:35:00,
2013-06-02 15:40:00,63.2,43.7,30.01,East,94,1.0,7.0,49,0.00,,CLR,0.00,VWS V14.01,2013-06-02 20:40:00,
2013-06-02 15:45:00,63.7,44.7,30.01,WNW,300,2.0,7.0,50,0.00,,CLR,0.00,VWS V14.01,2013-06-02 20:45:00,
2013-06-02 15:50:00,63.8,44.8,30.01,NE,50,1.0,7.0,50,0.00,,CLR,0.00,VWS V14.01,2013-06-02 20:50:00,
2013-06-02 15:55:00,64.3,47.8,30.01,NNW,342,4.0,7.0,55,0.00,,CLR,0.00,VWS V14.01,2013-06-02 20:55:00,
2013-06-02 16:00:00,64.2,44.7,30.01,NNW,335,4.0,7.0,49,0.00,,CLR,0.00,VWS V14.01,2013-06-02 21:00:00,
2013-06-02 16:05:00,64.0,44.5,30.01,NNW,339,2.0,5.0,49,0.00,,CLR,0.00,VWS V14.01,2013-06-02 21:05:00,
2013-06-02 16:10:00,63.8,44.8,30.01,NE,39,1.0,8.0,50,0.00,,CLR,0.00,VWS V14.01,2013-06-02 21:10:00,
2013-06-02 16:15:00,64.3,46.3,30.00,WNW,298,1.0,8.0,52,0.00,,CLR,0.00,VWS V14.01,2013-06-02 21:15:00,
2013-06-02 16:20:00,64.5,46.0,30.00,West,278,0.0,8.0,51,0.00,,CLR,0.00,VWS V14.01,2013-06-02 21:20:00,
2013-06-02 16:25:00,64.7,45.7,30.00,WNW,302,1.0,8.0,50,0.00,,CLR,0.00,VWS V14.01,2013-06-02 21:25:00,
2013-06-02 16:30:00,64.5,43.3,30.00,NNW,346,2.0,8.0,46,0.00,,CLR,0.00,VWS V14.01,2013-06-02 21:30:00,
2013-06-02 16:35:00,64.3,43.1,30.00,NNE,13,1.0,5.0,46,0.00,,CLR,0.00,VWS V14.01,2013-06-02 21:35:00,
2013-06-02 16:40:00,64.4,45.4,30.00,NNE,23,1.0,5.0,50,0.00,,CLR,0.00,VWS V14.01,2013-06-02 21:40:00,
2013-06-02 16:45:00,64.6,46.6,30.00,North,350,3.0,5.0,52,0.00,,CLR,0.00,VWS V14.01,2013-06-02 21:45:00,
2013-06-02 16:50:00,65.1,44.9,30.00,North,11,0.0,5.0,48,0.00,,CLR,0.00,VWS V14.01,2013-06-02 21:50:00,
2013-06-02 16:55:00,65.3,44.6,29.99,North,353,1.0,6.0,47,0.00,,CLR,0.00,VWS V14.01,2013-06-02 21:55:00,
2013-06-02 17:00:00,65.4,44.1,29.99,NW,323,1.0,6.0,46,0.00,,CLR,0.00,VWS V14.01,2013-06-02 22:00:00,
2013-06-02 17:05:00,64.9,43.1,29.99,NNW,346,5.0,7.0,45,0.00,,CLR,0.00,VWS V14.01,2013-06-02 22:05:00,
2013-06-02 17:10:00,64.7,43.5,29.99,North,352,3.0,7.0,46,0.00,,CLR,0.00,VWS V14.01,2013-06-02 22:10:00,
2013-06-02 17:15:00,64.6,45.6,29.99,NNW,335,2.0,7.0,50,0.00,,CLR,0.00,VWS V14.01,2013-06-02 22:15:00,
2013-06-02 17:20:00,64.7,46.2,29.99,NNW,338,0.0,7.0,51,0.00,,CLR,0.00,VWS V14.01,2013-06-02 22:20:00,
2013-06-02 17:25:00,65.0,44.3,29.99,North,3,0.0,7.0,47,0.00,,CLR,0.00,VWS V14.01,2013-06-02 22:25:00,
2013-06-02 17:30:00,65.3,45.7,29.99,North,356,1.0,7.0,49,0.00,,CLR,0.00,VWS V14.01,2013-06-02 22:30:00,
2013-06-02 17:35:00,65.1,44.4,29.99,NNE,16,1.0,4.0,47,0.00,,CLR,0.00,VWS V14.01,2013-06-02 22:35:00,
2013-06-02 17:40:00,65.2,42.2,29.99,NNW,338,2.0,4.0,43,0.00,,CLR,0.00,VWS V14.01,2013-06-02 22:40:00,
2013-06-02 17:45:00,65.0,42.6,29.99,North,1,6.0,6.0,44,0.00,,CLR,0.00,VWS V14.01,2013-06-02 22:45:00,
2013-06-02 17:50:00,65.1,43.8,29.98,NNW,339,3.0,6.0,46,0.00,,CLR,0.00,VWS V14.01,2013-06-02 22:50:00,
2013-06-02 17:55:00,64.7,41.7,29.98,North,5,2.0,6.0,43,0.00,,CLR,0.00,VWS V14.01,2013-06-02 22:55:00,
2013-06-02 18:00:00,64.6,42.8,29.98,NNE,12,1.0,6.0,45,0.00,,CLR,0.00,VWS V14.01,2013-06-02 23:00:00,
2013-06-02 18:05:00,64.8,44.7,29.98,NW,316,3.0,3.0,48,0.00,,CLR,0.00,VWS V14.01,2013-06-02 23:05:00,
2013-06-02 18:10:00,64.7,43.5,29.98,NNE,29,1.0,5.0,46,0.00,,CLR,0.00,VWS V14.01,2013-06-02 23:10:00,
2013-06-02 18:15:00,64.7,44.6,29.98,North,9,2.0,5.0,48,0.00,,CLR,0.00,VWS V14.01,2013-06-02 23:15:00,
2013-06-02 18:20:00,64.4,42.0,29.98,NNW,343,3.0,5.0,44,0.00,,CLR,0.00,VWS V14.01,2013-06-02 23:20:00,
2013-06-02 18:25:00,64.5,43.3,29.98,NW,315,1.0,5.0,46,0.00,,CLR,0.00,VWS V14.01,2013-06-02 23:25:00,
2013-06-02 18:30:00,64.6,42.8,29.98,NE,46,1.0,5.0,45,0.00,,CLR,0.00,VWS V14.01,2013-06-02 23:30:00,
2013-06-02 18:35:00,64.5,42.7,29.98,NNW,345,1.0,3.0,45,0.00,,CLR,0.00,VWS V14.01,2013-06-02 23:35:00,
2013-06-02 18:39:00,64.2,43.0,29.98,North,9,0.0,5.0,46,0.00,,CLR,0.00,VWS V14.01,2013-06-02 23:39:00,
2013-06-02 18:44:00,64.3,42.5,29.98,NW,325,0.0,5.0,45,0.00,,CLR,0.00,VWS V14.01,2013-06-02 23:44:00,
2013-06-02 18:49:00,64.7,43.5,29.98,WNW,302,0.0,5.0,46,0.00,,CLR,0.00,VWS V14.01,2013-06-02 23:49:00,
2013-06-02 18:54:00,64.7,43.5,29.98,North,352,2.0,5.0,46,0.00,,CLR,0.00,VWS V14.01,2013-06-02 23:54:00,
2013-06-02 18:59:00,64.7,42.9,29.98,NW,305,1.0,5.0,45,0.00,,CLR,0.00,VWS V14.01,2013-06-02 23:59:00,
2013-06-02 19:04:00,64.5,42.7,29.98,NNE,17,1.0,5.0,45,0.00,,CLR,0.00,VWS V14.01,2013-06-03 00:04:00,
2013-06-02 19:09:00,64.2,41.8,29.98,NNE,13,1.0,5.0,44,0.00,,CLR,0.00,VWS V14.01,2013-06-03 00:09:00,
2013-06-02 19:14:00,64.2,41.8,29.98,North,11,0.0,5.0,44,0.00,,CLR,0.00,VWS V14.01,2013-06-03 00:14:00,
2013-06-02 19:19:00,64.7,42.9,29.98,North,7,0.0,5.0,45,0.00,,CLR,0.00,VWS V14.01,2013-06-03 00:19:00,
2013-06-02 19:24:00,64.6,42.8,29.98,NNW,334,1.0,5.0,45,0.00,,CLR,0.00,VWS V14.01,2013-06-03 00:24:00,
2013-06-02 19:29:00,63.7,42.0,29.98,North,8,1.0,5.0,45,0.00,,CLR,0.00,VWS V14.01,2013-06-03 00:29:00,
2013-06-02 19:34:00,63.1,41.4,29.98,North,350,1.0,4.0,45,0.00,,CLR,0.00,VWS V14.01,2013-06-03 00:34:00,
2013-06-02 19:39:00,62.6,41.5,29.98,North,356,0.0,4.0,46,0.00,,CLR,0.00,VWS V14.01,2013-06-03 00:39:00,
2013-06-02 19:44:00,62.2,41.7,29.98,NNE,20,0.0,4.0,47,0.00,,CLR,0.00,VWS V14.01,2013-06-03 00:44:00,
2013-06-02 19:49:00,61.9,41.5,29.98,ENE,58,0.0,4.0,47,0.00,,CLR,0.00,VWS V14.01,2013-06-03 00:49:00,
2013-06-02 19:54:00,61.7,41.8,29.98,ENE,58,0.0,4.0,48,0.00,,CLR,0.00,VWS V14.01,2013-06-03 00:54:00,
2013-06-02 19:59:00,61.3,42.0,29.98,North,11,0.0,4.0,49,0.00,,CLR,0.00,VWS V14.01,2013-06-03 00:59:00,
2013-06-02 20:04:00,61.1,41.8,29.98,NNW,335,0.0,1.0,49,0.00,,CLR,0.00,VWS V14.01,2013-06-03 01:04:00,
2013-06-02 20:09:00,60.8,42.1,29.98,NNW,335,0.0,1.0,50,0.00,,CLR,0.00,VWS V14.01,2013-06-03 01:09:00,
2013-06-02 20:14:00,60.5,42.3,29.98,NNW,335,0.0,1.0,51,0.00,,CLR,0.00,VWS V14.01,2013-06-03 01:14:00,
2013-06-02 20:19:00,60.2,42.0,29.98,NNW,335,0.0,1.0,51,0.00,,CLR,0.00,VWS V14.01,2013-06-03 01:19:00,
2013-06-02 20:24:00,59.9,42.2,29.97,NNW,335,0.0,1.0,52,0.00,,CLR,0.00,VWS V14.01,2013-06-03 01:24:00,
2013-06-02 20:29:00,59.5,41.9,29.97,NNW,335,0.0,1.0,52,0.00,,CLR,0.00,VWS V14.01,2013-06-03 01:29:00,
2013-06-02 20:34:00,59.0,41.4,29.97,NNW,335,0.0,0.0,52,0.00,,CLR,0.00,VWS V14.01,2013-06-03 01:34:00,
2013-06-02 20:39:00,58.4,42.3,29.97,NNW,335,0.0,0.0,55,0.00,,CLR,0.00,VWS V14.01,2013-06-03 01:39:00,
2013-06-02 20:44:00,57.8,41.8,29.98,NNW,335,0.0,0.0,55,0.00,,CLR,0.00,VWS V14.01,2013-06-03 01:44:00,
2013-06-02 20:49:00,57.4,41.8,29.98,NNW,335,0.0,0.0,56,0.00,,CLR,0.00,VWS V14.01,2013-06-03 01:49:00,
2013-06-02 20:54:00,57.1,42.0,29.98,NNW,334,0.0,0.0,57,0.00,,CLR,0.00,VWS V14.01,2013-06-03 01:54:00,
2013-06-02 20:59:00,56.7,42.1,29.98,NNW,335,0.0,0.0,58,0.00,,CLR,0.00,VWS V14.01,2013-06-03 01:59:00,
2013-06-02 21:04:00,56.4,42.3,29.98,NNW,334,0.0,0.0,59,0.00,,CLR,0.00,VWS V14.01,2013-06-03 02:04:00,
2013-06-02 21:09:00,56.2,42.1,29.98,NNW,335,0.0,0.0,59,0.00,,CLR,0.00,VWS V14.01,2013-06-03 02:09:00,
2013-06-02 21:14:00,56.0,42.3,29.98,NNW,335,0.0,0.0,60,0.00,,CLR,0.00,VWS V14.01,2013-06-03 02:14:00,
2013-06-02 21:19:00,55.7,42.0,29.98,NNW,334,0.0,0.0,60,0.00,,CLR,0.00,VWS V14.01,2013-06-03 02:19:00,
2013-06-02 21:24:00,55.5,41.9,29.98,NNW,335,0.0,0.0,60,0.00,,CLR,0.00,VWS V14.01,2013-06-03 02:24:00,
2013-06-02 21:29:00,55.5,41.9,29.98,NNW,335,0.0,0.0,60,0.00,,CLR,0.00,VWS V14.01,2013-06-03 02:29:00,
2013-06-02 21:34:00,55.4,41.8,29.99,NNW,335,0.0,0.0,60,0.00,,CLR,0.00,VWS V14.01,2013-06-03 02:34:00,
2013-06-02 21:39:00,55.6,42.0,29.99,NNW,335,0.0,0.0,60,0.00,,CLR,0.00,VWS V14.01,2013-06-03 02:39:00,
2013-06-02 21:44:00,55.9,41.8,29.99,NNW,335,0.0,0.0,59,0.00,,CLR,0.00,VWS V14.01,2013-06-03 02:44:00,
2013-06-02 21:49:00,55.9,42.7,29.99,NNW,335,0.0,0.0,61,0.00,,CLR,0.00,VWS V14.01,2013-06-03 02:49:00,
2013-06-02 21:54:00,55.6,42.0,29.99,NNW,335,0.0,0.0,60,0.00,,CLR,0.00,VWS V14.01,2013-06-03 02:54:00,
2013-06-02 21:59:00,55.1,41.9,29.99,NNW,334,0.0,0.0,61,0.00,,CLR,0.00,VWS V14.01,2013-06-03 02:59:00,
2013-06-02 22:04:00,54.9,42.1,29.99,NNW,335,0.0,0.0,62,0.00,,CLR,0.00,VWS V14.01,2013-06-03 03:04:00,
2013-06-02 22:09:00,54.8,42.0,30.00,NNW,335,0.0,0.0,62,0.00,,CLR,0.00,VWS V14.01,2013-06-03 03:09:00,
2013-06-02 22:14:00,54.9,42.1,30.00,NNW,335,0.0,0.0,62,0.00,,CLR,0.00,VWS V14.01,2013-06-03 03:14:00,
2013-06-02 22:19:00,54.8,42.0,30.00,NNW,335,0.0,0.0,62,0.00,,CLR,0.00,VWS V14.01,2013-06-03 03:19:00,
2013-06-02 22:24:00,54.6,42.3,30.00,NNW,335,0.0,0.0,63,0.00,,CLR,0.00,VWS V14.01,2013-06-03 03:24:00,
2013-06-02 22:29:00,54.5,42.2,30.00,NNW,334,0.0,0.0,63,0.00,,CLR,0.00,VWS V14.01,2013-06-03 03:29:00,
2013-06-02 22:34:00,54.5,42.6,30.00,NNW,335,0.0,0.0,64,0.00,,CLR,0.00,VWS V14.01,2013-06-03 03:34:00,
2013-06-02 22:39:00,54.4,42.5,30.00,NNW,335,0.0,0.0,64,0.00,,CLR,0.00,VWS V14.01,2013-06-03 03:39:00,
2013-06-02 22:44:00,54.3,42.8,30.00,NNW,335,0.0,0.0,65,0.00,,CLR,0.00,VWS V14.01,2013-06-03 03:44:00,
2013-06-02 22:49:00,54.1,43.0,30.00,NNW,335,0.0,0.0,66,0.00,,CLR,0.00,VWS V14.01,2013-06-03 03:49:00,
2013-06-02 22:54:00,53.8,41.9,30.00,NNW,335,0.0,0.0,64,0.00,,CLR,0.00,VWS V14.01,2013-06-03 03:54:00,
2013-06-02 22:59:00,53.9,41.6,30.00,NNW,335,0.0,0.0,63,0.00,,CLR,0.00,VWS V14.01,2013-06-03 03:59:00,
2013-06-02 23:01:00,54.0,41.7,30.00,NNW,335,0.0,0.0,63,0.00,,CLR,0.00,VWS V14.01,2013-06-03 04:01:00,
2013-06-02 23:06:00,54.1,41.8,30.00,NNW,335,0.0,0.0,63,0.00,,CLR,0.00,VWS V14.01,2013-06-03 04:06:00,
2013-06-02 23:11:00,54.4,41.7,30.00,NNW,335,0.0,0.0,62,0.00,,CLR,0.00,VWS V14.01,2013-06-03 04:11:00,
2013-06-02 23:16:00,54.6,41.4,30.00,NNW,334,0.0,0.0,61,0.00,,CLR,0.00,VWS V14.01,2013-06-03 04:16:00,
2013-06-02 23:21:00,54.8,41.6,30.00,ESE,111,0.0,1.0,61,0.00,,CLR,0.00,VWS V14.01,2013-06-03 04:21:00,
2013-06-02 23:26:00,54.9,41.7,30.00,ESE,111,0.0,1.0,61,0.00,,CLR,0.00,VWS V14.01,2013-06-03 04:26:00,
2013-06-02 23:31:00,54.7,41.5,30.00,ESE,111,0.0,0.0,61,0.00,,CLR,0.00,VWS V14.01,2013-06-03 04:31:00,
2013-06-02 23:36:00,54.5,42.6,30.00,ESE,111,0.0,0.0,64,0.00,,CLR,0.00,VWS V14.01,2013-06-03 04:36:00,
2013-06-02 23:41:00,54.2,42.7,30.00,ESE,111,0.0,0.0,65,0.00,,CLR,0.00,VWS V14.01,2013-06-03 04:41:00,
2013-06-02 23:46:00,54.1,42.6,30.00,ESE,111,0.0,0.0,65,0.00,,CLR,0.00,VWS V14.01,2013-06-03 04:46:00,
2013-06-02 23:51:00,53.8,42.3,30.00,ESE,111,0.0,0.0,65,0.00,,CLR,0.00,VWS V14.01,2013-06-03 04:51:00,
2013-06-02 23:56:00,53.6,42.1,30.01,ESE,111,0.0,0.0,65,0.00,,CLR,0.00,VWS V14.01,2013-06-03 04:56:00,